<?xml version="1.0" encoding="UTF-8" standalone="no" ?>
<gpx xmlns="http://www.topografix.com/GPX/1/1" xmlns:xsi="http://www.w3.org/2001/XMLSchema-instance" xsi:schemaLocation="http://www.topografix.com/GPX/1/1 http://www.topografix.com/GPX/1/1/gpx.xsd" version="1.1" creator="VisuGPX - https://www.visugpx.com">
  <metadata>
    <name>SityTrail - St Jean de Touslas</name>
  </metadata>
  <trk>
    <name><![CDATA[SityTrail - St Jean de Touslas]]></name>
    <trkseg>
      <trkpt lat="45.57885" lon="4.66408">
        <ele>333</ele>
        <time>2020-09-08T08:47:00Z</time>
      </trkpt>
      <trkpt lat="45.57897" lon="4.66438">
        <ele>332</ele>
        <time>2020-09-08T08:47:32Z</time>
      </trkpt>
      <trkpt lat="45.57954" lon="4.66536">
        <ele>326</ele>
        <time>2020-09-08T08:49:31Z</time>
      </trkpt>
      <trkpt lat="45.57957" lon="4.66547">
        <ele>324</ele>
        <time>2020-09-08T08:49:42Z</time>
      </trkpt>
      <trkpt lat="45.57959" lon="4.66555">
        <ele>323</ele>
        <time>2020-09-08T08:49:50Z</time>
      </trkpt>
      <trkpt lat="45.57951" lon="4.66594">
        <ele>322</ele>
        <time>2020-09-08T08:50:28Z</time>
      </trkpt>
      <trkpt lat="45.5795" lon="4.66615">
        <ele>322</ele>
        <time>2020-09-08T08:50:48Z</time>
      </trkpt>
      <trkpt lat="45.57956" lon="4.66639">
        <ele>322</ele>
        <time>2020-09-08T08:51:12Z</time>
      </trkpt>
      <trkpt lat="45.57966" lon="4.66659">
        <ele>320</ele>
        <time>2020-09-08T08:51:35Z</time>
      </trkpt>
      <trkpt lat="45.5797" lon="4.66662">
        <ele>320</ele>
        <time>2020-09-08T08:51:41Z</time>
      </trkpt>
      <trkpt lat="45.57991" lon="4.66703">
        <ele>317</ele>
        <time>2020-09-08T08:52:28Z</time>
      </trkpt>
      <trkpt lat="45.58059" lon="4.66767">
        <ele>311</ele>
        <time>2020-09-08T08:54:17Z</time>
      </trkpt>
      <trkpt lat="45.58073" lon="4.66794">
        <ele>310</ele>
        <time>2020-09-08T08:54:48Z</time>
      </trkpt>
      <trkpt lat="45.58079" lon="4.66814">
        <ele>310</ele>
        <time>2020-09-08T08:55:08Z</time>
      </trkpt>
      <trkpt lat="45.58084" lon="4.66829">
        <ele>309</ele>
        <time>2020-09-08T08:55:24Z</time>
      </trkpt>
      <trkpt lat="45.5809" lon="4.66843">
        <ele>309</ele>
        <time>2020-09-08T08:55:39Z</time>
      </trkpt>
      <trkpt lat="45.58097" lon="4.66852">
        <ele>311</ele>
        <time>2020-09-08T08:55:52Z</time>
      </trkpt>
      <trkpt lat="45.58108" lon="4.66861">
        <ele>309</ele>
        <time>2020-09-08T08:56:09Z</time>
      </trkpt>
      <trkpt lat="45.58114" lon="4.66858">
        <ele>309</ele>
        <time>2020-09-08T08:56:17Z</time>
      </trkpt>
      <trkpt lat="45.58116" lon="4.66859">
        <ele>309</ele>
        <time>2020-09-08T08:56:20Z</time>
      </trkpt>
      <trkpt lat="45.58117" lon="4.6686">
        <ele>309</ele>
        <time>2020-09-08T08:56:22Z</time>
      </trkpt>
      <trkpt lat="45.58121" lon="4.66864">
        <ele>309</ele>
        <time>2020-09-08T08:56:28Z</time>
      </trkpt>
      <trkpt lat="45.58128" lon="4.66862">
        <ele>310</ele>
        <time>2020-09-08T08:56:38Z</time>
      </trkpt>
      <trkpt lat="45.58147" lon="4.66858">
        <ele>310</ele>
        <time>2020-09-08T08:57:03Z</time>
      </trkpt>
      <trkpt lat="45.5816" lon="4.66858">
        <ele>311</ele>
        <time>2020-09-08T08:57:21Z</time>
      </trkpt>
      <trkpt lat="45.58173" lon="4.66847">
        <ele>312</ele>
        <time>2020-09-08T08:57:41Z</time>
      </trkpt>
      <trkpt lat="45.58222" lon="4.66845">
        <ele>321</ele>
        <time>2020-09-08T08:58:46Z</time>
      </trkpt>
      <trkpt lat="45.58272" lon="4.669">
        <ele>336</ele>
        <time>2020-09-08T09:00:11Z</time>
      </trkpt>
      <trkpt lat="45.58299" lon="4.66916">
        <ele>342</ele>
        <time>2020-09-08T09:00:50Z</time>
      </trkpt>
      <trkpt lat="45.58334" lon="4.66932">
        <ele>344</ele>
        <time>2020-09-08T09:01:39Z</time>
      </trkpt>
      <trkpt lat="45.58369" lon="4.66943">
        <ele>348</ele>
        <time>2020-09-08T09:02:26Z</time>
      </trkpt>
      <trkpt lat="45.58389" lon="4.6696">
        <ele>349</ele>
        <time>2020-09-08T09:02:57Z</time>
      </trkpt>
      <trkpt lat="45.58386" lon="4.66974">
        <ele>349</ele>
        <time>2020-09-08T09:03:11Z</time>
      </trkpt>
      <trkpt lat="45.58374" lon="4.67094">
        <ele>343</ele>
        <time>2020-09-08T09:05:04Z</time>
      </trkpt>
      <trkpt lat="45.5838" lon="4.67115">
        <ele>343</ele>
        <time>2020-09-08T09:05:26Z</time>
      </trkpt>
      <trkpt lat="45.58393" lon="4.67144">
        <ele>342</ele>
        <time>2020-09-08T09:05:58Z</time>
      </trkpt>
      <trkpt lat="45.5843" lon="4.67204">
        <ele>342</ele>
        <time>2020-09-08T09:07:12Z</time>
      </trkpt>
      <trkpt lat="45.58407" lon="4.67245">
        <ele>340</ele>
        <time>2020-09-08T09:08:01Z</time>
      </trkpt>
      <trkpt lat="45.58431" lon="4.67275">
        <ele>339</ele>
        <time>2020-09-08T09:08:44Z</time>
      </trkpt>
      <trkpt lat="45.58449" lon="4.67427">
        <ele>334</ele>
        <time>2020-09-08T09:11:08Z</time>
      </trkpt>
      <trkpt lat="45.58449" lon="4.67427">
        <ele>334</ele>
        <time>2020-09-08T09:11:08Z</time>
      </trkpt>
      <trkpt lat="45.58562" lon="4.67516">
        <ele>330</ele>
        <time>2020-09-08T09:14:00Z</time>
      </trkpt>
      <trkpt lat="45.58562" lon="4.67516">
        <ele>330</ele>
        <time>2020-09-08T09:14:00Z</time>
      </trkpt>
      <trkpt lat="45.58606" lon="4.67662">
        <ele>332</ele>
        <time>2020-09-08T09:16:29Z</time>
      </trkpt>
      <trkpt lat="45.58606" lon="4.67662">
        <ele>332</ele>
        <time>2020-09-08T09:16:29Z</time>
      </trkpt>
      <trkpt lat="45.58608" lon="4.67871">
        <ele>337</ele>
        <time>2020-09-08T09:19:44Z</time>
      </trkpt>
      <trkpt lat="45.58608" lon="4.67871">
        <ele>337</ele>
        <time>2020-09-08T09:19:44Z</time>
      </trkpt>
      <trkpt lat="45.58665" lon="4.67978">
        <ele>337</ele>
        <time>2020-09-08T09:21:49Z</time>
      </trkpt>
      <trkpt lat="45.58665" lon="4.67978">
        <ele>337</ele>
        <time>2020-09-08T09:21:49Z</time>
      </trkpt>
      <trkpt lat="45.58692" lon="4.68157">
        <ele>330</ele>
        <time>2020-09-08T09:24:40Z</time>
      </trkpt>
      <trkpt lat="45.58692" lon="4.68157">
        <ele>330</ele>
        <time>2020-09-08T09:24:40Z</time>
      </trkpt>
      <trkpt lat="45.58697" lon="4.68427">
        <ele>330</ele>
        <time>2020-09-08T09:28:53Z</time>
      </trkpt>
      <trkpt lat="45.58698" lon="4.68428">
        <ele>330</ele>
        <time>2020-09-08T09:28:54Z</time>
      </trkpt>
      <trkpt lat="45.58658" lon="4.68507">
        <ele>331</ele>
        <time>2020-09-08T09:30:25Z</time>
      </trkpt>
      <trkpt lat="45.58619" lon="4.68577">
        <ele>332</ele>
        <time>2020-09-08T09:31:49Z</time>
      </trkpt>
      <trkpt lat="45.58614" lon="4.68584">
        <ele>332</ele>
        <time>2020-09-08T09:31:58Z</time>
      </trkpt>
      <trkpt lat="45.58589" lon="4.68633">
        <ele>333</ele>
        <time>2020-09-08T09:32:55Z</time>
      </trkpt>
      <trkpt lat="45.58572" lon="4.68685">
        <ele>332</ele>
        <time>2020-09-08T09:33:49Z</time>
      </trkpt>
      <trkpt lat="45.58557" lon="4.68762">
        <ele>329</ele>
        <time>2020-09-08T09:35:03Z</time>
      </trkpt>
      <trkpt lat="45.58522" lon="4.68894">
        <ele>325</ele>
        <time>2020-09-08T09:37:15Z</time>
      </trkpt>
      <trkpt lat="45.58492" lon="4.68866">
        <ele>324</ele>
        <time>2020-09-08T09:38:03Z</time>
      </trkpt>
      <trkpt lat="45.58473" lon="4.68844">
        <ele>324</ele>
        <time>2020-09-08T09:38:35Z</time>
      </trkpt>
      <trkpt lat="45.58444" lon="4.68804">
        <ele>323</ele>
        <time>2020-09-08T09:39:29Z</time>
      </trkpt>
      <trkpt lat="45.58322" lon="4.68649">
        <ele>325</ele>
        <time>2020-09-08T09:43:07Z</time>
      </trkpt>
      <trkpt lat="45.58291" lon="4.68604">
        <ele>324</ele>
        <time>2020-09-08T09:44:06Z</time>
      </trkpt>
      <trkpt lat="45.58283" lon="4.68584">
        <ele>324</ele>
        <time>2020-09-08T09:44:28Z</time>
      </trkpt>
      <trkpt lat="45.58256" lon="4.68463">
        <ele>320</ele>
        <time>2020-09-08T09:46:26Z</time>
      </trkpt>
      <trkpt lat="45.5825" lon="4.68412">
        <ele>317</ele>
        <time>2020-09-08T09:47:14Z</time>
      </trkpt>
      <trkpt lat="45.58247" lon="4.68367">
        <ele>311</ele>
        <time>2020-09-08T09:47:57Z</time>
      </trkpt>
      <trkpt lat="45.58249" lon="4.68349">
        <ele>311</ele>
        <time>2020-09-08T09:48:14Z</time>
      </trkpt>
      <trkpt lat="45.58265" lon="4.68339">
        <ele>311</ele>
        <time>2020-09-08T09:48:37Z</time>
      </trkpt>
      <trkpt lat="45.58271" lon="4.68324">
        <ele>311</ele>
        <time>2020-09-08T09:48:53Z</time>
      </trkpt>
      <trkpt lat="45.58261" lon="4.68305">
        <ele>309</ele>
        <time>2020-09-08T09:49:15Z</time>
      </trkpt>
      <trkpt lat="45.58243" lon="4.68288">
        <ele>310</ele>
        <time>2020-09-08T09:49:44Z</time>
      </trkpt>
      <trkpt lat="45.58204" lon="4.68282">
        <ele>305</ele>
        <time>2020-09-08T09:50:36Z</time>
      </trkpt>
      <trkpt lat="45.58177" lon="4.68269">
        <ele>304</ele>
        <time>2020-09-08T09:51:15Z</time>
      </trkpt>
      <trkpt lat="45.58173" lon="4.68271">
        <ele>304</ele>
        <time>2020-09-08T09:51:20Z</time>
      </trkpt>
      <trkpt lat="45.58169" lon="4.68261">
        <ele>306</ele>
        <time>2020-09-08T09:51:31Z</time>
      </trkpt>
      <trkpt lat="45.58167" lon="4.68239">
        <ele>306</ele>
        <time>2020-09-08T09:51:52Z</time>
      </trkpt>
      <trkpt lat="45.58163" lon="4.68225">
        <ele>308</ele>
        <time>2020-09-08T09:52:06Z</time>
      </trkpt>
      <trkpt lat="45.58098" lon="4.68159">
        <ele>310</ele>
        <time>2020-09-08T09:53:52Z</time>
      </trkpt>
      <trkpt lat="45.58083" lon="4.68142">
        <ele>311</ele>
        <time>2020-09-08T09:54:18Z</time>
      </trkpt>
      <trkpt lat="45.58052" lon="4.68117">
        <ele>314</ele>
        <time>2020-09-08T09:55:05Z</time>
      </trkpt>
      <trkpt lat="45.5802" lon="4.68076">
        <ele>315</ele>
        <time>2020-09-08T09:56:03Z</time>
      </trkpt>
      <trkpt lat="45.58008" lon="4.68057">
        <ele>316</ele>
        <time>2020-09-08T09:56:27Z</time>
      </trkpt>
      <trkpt lat="45.57943" lon="4.67967">
        <ele>316</ele>
        <time>2020-09-08T09:58:27Z</time>
      </trkpt>
      <trkpt lat="45.57938" lon="4.67963">
        <ele>316</ele>
        <time>2020-09-08T09:58:35Z</time>
      </trkpt>
      <trkpt lat="45.57866" lon="4.67869">
        <ele>310</ele>
        <time>2020-09-08T10:00:45Z</time>
      </trkpt>
      <trkpt lat="45.57865" lon="4.6786">
        <ele>310</ele>
        <time>2020-09-08T10:00:54Z</time>
      </trkpt>
      <trkpt lat="45.57862" lon="4.67835">
        <ele>308</ele>
        <time>2020-09-08T10:01:17Z</time>
      </trkpt>
      <trkpt lat="45.57871" lon="4.67782">
        <ele>302</ele>
        <time>2020-09-08T10:02:08Z</time>
      </trkpt>
      <trkpt lat="45.57879" lon="4.67746">
        <ele>306</ele>
        <time>2020-09-08T10:02:44Z</time>
      </trkpt>
      <trkpt lat="45.57882" lon="4.67738">
        <ele>306</ele>
        <time>2020-09-08T10:02:52Z</time>
      </trkpt>
      <trkpt lat="45.57883" lon="4.67675">
        <ele>299</ele>
        <time>2020-09-08T10:03:51Z</time>
      </trkpt>
      <trkpt lat="45.57894" lon="4.67656">
        <ele>299</ele>
        <time>2020-09-08T10:04:14Z</time>
      </trkpt>
      <trkpt lat="45.57909" lon="4.67637">
        <ele>301</ele>
        <time>2020-09-08T10:04:41Z</time>
      </trkpt>
      <trkpt lat="45.57914" lon="4.67626">
        <ele>301</ele>
        <time>2020-09-08T10:04:53Z</time>
      </trkpt>
      <trkpt lat="45.57915" lon="4.67617">
        <ele>298</ele>
        <time>2020-09-08T10:05:01Z</time>
      </trkpt>
      <trkpt lat="45.57903" lon="4.67581">
        <ele>296</ele>
        <time>2020-09-08T10:05:39Z</time>
      </trkpt>
      <trkpt lat="45.57901" lon="4.67578">
        <ele>296</ele>
        <time>2020-09-08T10:05:43Z</time>
      </trkpt>
      <trkpt lat="45.57899" lon="4.67575">
        <ele>296</ele>
        <time>2020-09-08T10:05:46Z</time>
      </trkpt>
      <trkpt lat="45.57898" lon="4.67573">
        <ele>296</ele>
        <time>2020-09-08T10:05:49Z</time>
      </trkpt>
      <trkpt lat="45.57881" lon="4.67584">
        <ele>296</ele>
        <time>2020-09-08T10:06:14Z</time>
      </trkpt>
      <trkpt lat="45.57878" lon="4.67589">
        <ele>296</ele>
        <time>2020-09-08T10:06:20Z</time>
      </trkpt>
      <trkpt lat="45.57867" lon="4.67616">
        <ele>297</ele>
        <time>2020-09-08T10:06:49Z</time>
      </trkpt>
      <trkpt lat="45.57861" lon="4.67626">
        <ele>296</ele>
        <time>2020-09-08T10:07:01Z</time>
      </trkpt>
      <trkpt lat="45.57844" lon="4.67647">
        <ele>297</ele>
        <time>2020-09-08T10:07:31Z</time>
      </trkpt>
      <trkpt lat="45.57805" lon="4.67676">
        <ele>299</ele>
        <time>2020-09-08T10:08:30Z</time>
      </trkpt>
      <trkpt lat="45.57793" lon="4.67682">
        <ele>297</ele>
        <time>2020-09-08T10:08:47Z</time>
      </trkpt>
      <trkpt lat="45.57788" lon="4.67681">
        <ele>302</ele>
        <time>2020-09-08T10:08:54Z</time>
      </trkpt>
      <trkpt lat="45.5777" lon="4.67669">
        <ele>303</ele>
        <time>2020-09-08T10:09:20Z</time>
      </trkpt>
      <trkpt lat="45.57761" lon="4.67669">
        <ele>304</ele>
        <time>2020-09-08T10:09:32Z</time>
      </trkpt>
      <trkpt lat="45.57746" lon="4.67661">
        <ele>304</ele>
        <time>2020-09-08T10:09:53Z</time>
      </trkpt>
      <trkpt lat="45.57741" lon="4.6766">
        <ele>304</ele>
        <time>2020-09-08T10:10:00Z</time>
      </trkpt>
      <trkpt lat="45.57734" lon="4.67668">
        <ele>304</ele>
        <time>2020-09-08T10:10:12Z</time>
      </trkpt>
      <trkpt lat="45.57724" lon="4.67684">
        <ele>304</ele>
        <time>2020-09-08T10:10:32Z</time>
      </trkpt>
      <trkpt lat="45.57712" lon="4.67691">
        <ele>304</ele>
        <time>2020-09-08T10:10:49Z</time>
      </trkpt>
      <trkpt lat="45.57702" lon="4.67693">
        <ele>305</ele>
        <time>2020-09-08T10:11:03Z</time>
      </trkpt>
      <trkpt lat="45.5769" lon="4.6768">
        <ele>305</ele>
        <time>2020-09-08T10:11:23Z</time>
      </trkpt>
      <trkpt lat="45.57667" lon="4.67678">
        <ele>307</ele>
        <time>2020-09-08T10:11:54Z</time>
      </trkpt>
      <trkpt lat="45.57553" lon="4.67683">
        <ele>308</ele>
        <time>2020-09-08T10:14:26Z</time>
      </trkpt>
      <trkpt lat="45.57479" lon="4.6768">
        <ele>313</ele>
        <time>2020-09-08T10:16:05Z</time>
      </trkpt>
      <trkpt lat="45.57396" lon="4.67725">
        <ele>314</ele>
        <time>2020-09-08T10:18:03Z</time>
      </trkpt>
      <trkpt lat="45.57384" lon="4.67739">
        <ele>312</ele>
        <time>2020-09-08T10:18:24Z</time>
      </trkpt>
      <trkpt lat="45.57373" lon="4.67764">
        <ele>312</ele>
        <time>2020-09-08T10:18:52Z</time>
      </trkpt>
      <trkpt lat="45.57366" lon="4.67789">
        <ele>312</ele>
        <time>2020-09-08T10:19:17Z</time>
      </trkpt>
      <trkpt lat="45.57358" lon="4.67809">
        <ele>311</ele>
        <time>2020-09-08T10:19:38Z</time>
      </trkpt>
      <trkpt lat="45.5734" lon="4.67827">
        <ele>311</ele>
        <time>2020-09-08T10:20:08Z</time>
      </trkpt>
      <trkpt lat="45.57304" lon="4.67836">
        <ele>311</ele>
        <time>2020-09-08T10:20:56Z</time>
      </trkpt>
      <trkpt lat="45.57284" lon="4.67848">
        <ele>313</ele>
        <time>2020-09-08T10:21:25Z</time>
      </trkpt>
      <trkpt lat="45.57262" lon="4.67868">
        <ele>314</ele>
        <time>2020-09-08T10:22:00Z</time>
      </trkpt>
      <trkpt lat="45.57251" lon="4.67884">
        <ele>313</ele>
        <time>2020-09-08T10:22:21Z</time>
      </trkpt>
      <trkpt lat="45.57241" lon="4.67904">
        <ele>312</ele>
        <time>2020-09-08T10:22:44Z</time>
      </trkpt>
      <trkpt lat="45.57234" lon="4.67928">
        <ele>313</ele>
        <time>2020-09-08T10:23:08Z</time>
      </trkpt>
      <trkpt lat="45.57205" lon="4.67989">
        <ele>310</ele>
        <time>2020-09-08T10:24:17Z</time>
      </trkpt>
      <trkpt lat="45.57194" lon="4.68004">
        <ele>310</ele>
        <time>2020-09-08T10:24:37Z</time>
      </trkpt>
      <trkpt lat="45.57142" lon="4.68033">
        <ele>312</ele>
        <time>2020-09-08T10:25:52Z</time>
      </trkpt>
      <trkpt lat="45.5712" lon="4.68043">
        <ele>313</ele>
        <time>2020-09-08T10:26:23Z</time>
      </trkpt>
      <trkpt lat="45.57097" lon="4.68047">
        <ele>313</ele>
        <time>2020-09-08T10:26:54Z</time>
      </trkpt>
      <trkpt lat="45.57082" lon="4.68045">
        <ele>313</ele>
        <time>2020-09-08T10:27:14Z</time>
      </trkpt>
      <trkpt lat="45.57072" lon="4.68031">
        <ele>313</ele>
        <time>2020-09-08T10:27:32Z</time>
      </trkpt>
      <trkpt lat="45.57056" lon="4.68033">
        <ele>311</ele>
        <time>2020-09-08T10:27:54Z</time>
      </trkpt>
      <trkpt lat="45.56983" lon="4.6797">
        <ele>313</ele>
        <time>2020-09-08T10:29:48Z</time>
      </trkpt>
      <trkpt lat="45.56946" lon="4.6792">
        <ele>315</ele>
        <time>2020-09-08T10:30:56Z</time>
      </trkpt>
      <trkpt lat="45.5694" lon="4.67907">
        <ele>315</ele>
        <time>2020-09-08T10:31:10Z</time>
      </trkpt>
      <trkpt lat="45.56934" lon="4.67902">
        <ele>315</ele>
        <time>2020-09-08T10:31:19Z</time>
      </trkpt>
      <trkpt lat="45.56921" lon="4.67899">
        <ele>315</ele>
        <time>2020-09-08T10:31:37Z</time>
      </trkpt>
      <trkpt lat="45.56907" lon="4.679">
        <ele>315</ele>
        <time>2020-09-08T10:31:56Z</time>
      </trkpt>
      <trkpt lat="45.56894" lon="4.67905">
        <ele>314</ele>
        <time>2020-09-08T10:32:14Z</time>
      </trkpt>
      <trkpt lat="45.56872" lon="4.67923">
        <ele>314</ele>
        <time>2020-09-08T10:32:48Z</time>
      </trkpt>
      <trkpt lat="45.56855" lon="4.6793">
        <ele>314</ele>
        <time>2020-09-08T10:33:11Z</time>
      </trkpt>
      <trkpt lat="45.56825" lon="4.6792">
        <ele>314</ele>
        <time>2020-09-08T10:33:52Z</time>
      </trkpt>
      <trkpt lat="45.56835" lon="4.67865">
        <ele>313</ele>
        <time>2020-09-08T10:34:45Z</time>
      </trkpt>
      <trkpt lat="45.56838" lon="4.67854">
        <ele>313</ele>
        <time>2020-09-08T10:34:56Z</time>
      </trkpt>
      <trkpt lat="45.5682" lon="4.67837">
        <ele>311</ele>
        <time>2020-09-08T10:35:25Z</time>
      </trkpt>
      <trkpt lat="45.56808" lon="4.67828">
        <ele>308</ele>
        <time>2020-09-08T10:35:43Z</time>
      </trkpt>
      <trkpt lat="45.56766" lon="4.67814">
        <ele>302</ele>
        <time>2020-09-08T10:36:41Z</time>
      </trkpt>
      <trkpt lat="45.56759" lon="4.67808">
        <ele>299</ele>
        <time>2020-09-08T10:36:52Z</time>
      </trkpt>
      <trkpt lat="45.56743" lon="4.67784">
        <ele>295</ele>
        <time>2020-09-08T10:37:23Z</time>
      </trkpt>
      <trkpt lat="45.56705" lon="4.67752">
        <ele>289</ele>
        <time>2020-09-08T10:38:22Z</time>
      </trkpt>
      <trkpt lat="45.56697" lon="4.67741">
        <ele>289</ele>
        <time>2020-09-08T10:38:36Z</time>
      </trkpt>
      <trkpt lat="45.56673" lon="4.67698">
        <ele>277</ele>
        <time>2020-09-08T10:39:28Z</time>
      </trkpt>
      <trkpt lat="45.56664" lon="4.67674">
        <ele>273</ele>
        <time>2020-09-08T10:39:53Z</time>
      </trkpt>
      <trkpt lat="45.56659" lon="4.67675">
        <ele>273</ele>
        <time>2020-09-08T10:40:00Z</time>
      </trkpt>
      <trkpt lat="45.56614" lon="4.6765">
        <ele>261</ele>
        <time>2020-09-08T10:41:04Z</time>
      </trkpt>
      <trkpt lat="45.56562" lon="4.67633">
        <ele>253</ele>
        <time>2020-09-08T10:42:16Z</time>
      </trkpt>
      <trkpt lat="45.56547" lon="4.67633">
        <ele>253</ele>
        <time>2020-09-08T10:42:36Z</time>
      </trkpt>
      <trkpt lat="45.56522" lon="4.67626">
        <ele>253</ele>
        <time>2020-09-08T10:43:10Z</time>
      </trkpt>
      <trkpt lat="45.56505" lon="4.67625">
        <ele>248</ele>
        <time>2020-09-08T10:43:32Z</time>
      </trkpt>
      <trkpt lat="45.56475" lon="4.67607">
        <ele>248</ele>
        <time>2020-09-08T10:44:16Z</time>
      </trkpt>
      <trkpt lat="45.56471" lon="4.67598">
        <ele>248</ele>
        <time>2020-09-08T10:44:26Z</time>
      </trkpt>
      <trkpt lat="45.56454" lon="4.67571">
        <ele>249</ele>
        <time>2020-09-08T10:45:00Z</time>
      </trkpt>
      <trkpt lat="45.56447" lon="4.67566">
        <ele>256</ele>
        <time>2020-09-08T10:45:10Z</time>
      </trkpt>
      <trkpt lat="45.56431" lon="4.6756">
        <ele>256</ele>
        <time>2020-09-08T10:45:32Z</time>
      </trkpt>
      <trkpt lat="45.56412" lon="4.67557">
        <ele>253</ele>
        <time>2020-09-08T10:45:58Z</time>
      </trkpt>
      <trkpt lat="45.56401" lon="4.67561">
        <ele>253</ele>
        <time>2020-09-08T10:46:13Z</time>
      </trkpt>
      <trkpt lat="45.56381" lon="4.67562">
        <ele>253</ele>
        <time>2020-09-08T10:46:39Z</time>
      </trkpt>
      <trkpt lat="45.56312" lon="4.67552">
        <ele>247</ele>
        <time>2020-09-08T10:48:12Z</time>
      </trkpt>
      <trkpt lat="45.56291" lon="4.67541">
        <ele>248</ele>
        <time>2020-09-08T10:48:42Z</time>
      </trkpt>
      <trkpt lat="45.56208" lon="4.67486">
        <ele>228</ele>
        <time>2020-09-08T10:50:44Z</time>
      </trkpt>
      <trkpt lat="45.56207" lon="4.67425">
        <ele>230</ele>
        <time>2020-09-08T10:51:41Z</time>
      </trkpt>
      <trkpt lat="45.56207" lon="4.67407">
        <ele>230</ele>
        <time>2020-09-08T10:51:58Z</time>
      </trkpt>
      <trkpt lat="45.56204" lon="4.67331">
        <ele>236</ele>
        <time>2020-09-08T10:53:09Z</time>
      </trkpt>
      <trkpt lat="45.56205" lon="4.67321">
        <ele>236</ele>
        <time>2020-09-08T10:53:18Z</time>
      </trkpt>
      <trkpt lat="45.56214" lon="4.67282">
        <ele>249</ele>
        <time>2020-09-08T10:53:57Z</time>
      </trkpt>
      <trkpt lat="45.56215" lon="4.67247">
        <ele>249</ele>
        <time>2020-09-08T10:54:29Z</time>
      </trkpt>
      <trkpt lat="45.56212" lon="4.67212">
        <ele>253</ele>
        <time>2020-09-08T10:55:02Z</time>
      </trkpt>
      <trkpt lat="45.56205" lon="4.67178">
        <ele>248</ele>
        <time>2020-09-08T10:55:35Z</time>
      </trkpt>
      <trkpt lat="45.56198" lon="4.67164">
        <ele>248</ele>
        <time>2020-09-08T10:55:52Z</time>
      </trkpt>
      <trkpt lat="45.56185" lon="4.67148">
        <ele>254</ele>
        <time>2020-09-08T10:56:14Z</time>
      </trkpt>
      <trkpt lat="45.5618" lon="4.67138">
        <ele>244</ele>
        <time>2020-09-08T10:56:26Z</time>
      </trkpt>
      <trkpt lat="45.56161" lon="4.67112">
        <ele>252</ele>
        <time>2020-09-08T10:57:01Z</time>
      </trkpt>
      <trkpt lat="45.56134" lon="4.67086">
        <ele>251</ele>
        <time>2020-09-08T10:57:44Z</time>
      </trkpt>
      <trkpt lat="45.56123" lon="4.67068">
        <ele>248</ele>
        <time>2020-09-08T10:58:07Z</time>
      </trkpt>
      <trkpt lat="45.56093" lon="4.67005">
        <ele>247</ele>
        <time>2020-09-08T10:59:18Z</time>
      </trkpt>
      <trkpt lat="45.56088" lon="4.67">
        <ele>247</ele>
        <time>2020-09-08T10:59:26Z</time>
      </trkpt>
      <trkpt lat="45.5607" lon="4.66988">
        <ele>247</ele>
        <time>2020-09-08T10:59:53Z</time>
      </trkpt>
      <trkpt lat="45.56059" lon="4.66973">
        <ele>239</ele>
        <time>2020-09-08T11:00:13Z</time>
      </trkpt>
      <trkpt lat="45.56046" lon="4.66923">
        <ele>242</ele>
        <time>2020-09-08T11:01:03Z</time>
      </trkpt>
      <trkpt lat="45.56051" lon="4.66883">
        <ele>243</ele>
        <time>2020-09-08T11:01:41Z</time>
      </trkpt>
      <trkpt lat="45.56051" lon="4.66869">
        <ele>243</ele>
        <time>2020-09-08T11:01:54Z</time>
      </trkpt>
      <trkpt lat="45.56043" lon="4.66841">
        <ele>245</ele>
        <time>2020-09-08T11:02:22Z</time>
      </trkpt>
      <trkpt lat="45.56024" lon="4.66787">
        <ele>246</ele>
        <time>2020-09-08T11:03:19Z</time>
      </trkpt>
      <trkpt lat="45.56019" lon="4.66762">
        <ele>249</ele>
        <time>2020-09-08T11:03:43Z</time>
      </trkpt>
      <trkpt lat="45.56015" lon="4.66726">
        <ele>252</ele>
        <time>2020-09-08T11:04:17Z</time>
      </trkpt>
      <trkpt lat="45.56009" lon="4.66713">
        <ele>247</ele>
        <time>2020-09-08T11:04:31Z</time>
      </trkpt>
      <trkpt lat="45.56002" lon="4.66675">
        <ele>250</ele>
        <time>2020-09-08T11:05:08Z</time>
      </trkpt>
      <trkpt lat="45.56002" lon="4.66648">
        <ele>253</ele>
        <time>2020-09-08T11:05:33Z</time>
      </trkpt>
      <trkpt lat="45.56004" lon="4.66629">
        <ele>253</ele>
        <time>2020-09-08T11:05:51Z</time>
      </trkpt>
      <trkpt lat="45.56007" lon="4.66623">
        <ele>252</ele>
        <time>2020-09-08T11:05:58Z</time>
      </trkpt>
      <trkpt lat="45.56011" lon="4.66648">
        <ele>253</ele>
        <time>2020-09-08T11:06:22Z</time>
      </trkpt>
      <trkpt lat="45.56022" lon="4.66643">
        <ele>256</ele>
        <time>2020-09-08T11:06:38Z</time>
      </trkpt>
      <trkpt lat="45.56027" lon="4.66624">
        <ele>253</ele>
        <time>2020-09-08T11:06:57Z</time>
      </trkpt>
      <trkpt lat="45.56034" lon="4.66615">
        <ele>253</ele>
        <time>2020-09-08T11:07:09Z</time>
      </trkpt>
      <trkpt lat="45.56036" lon="4.6665">
        <ele>256</ele>
        <time>2020-09-08T11:07:42Z</time>
      </trkpt>
      <trkpt lat="45.56048" lon="4.66643">
        <ele>264</ele>
        <time>2020-09-08T11:07:59Z</time>
      </trkpt>
      <trkpt lat="45.56052" lon="4.66673">
        <ele>265</ele>
        <time>2020-09-08T11:08:28Z</time>
      </trkpt>
      <trkpt lat="45.56058" lon="4.6667">
        <ele>265</ele>
        <time>2020-09-08T11:08:36Z</time>
      </trkpt>
      <trkpt lat="45.5607" lon="4.66699">
        <ele>273</ele>
        <time>2020-09-08T11:09:08Z</time>
      </trkpt>
      <trkpt lat="45.56083" lon="4.66716">
        <ele>267</ele>
        <time>2020-09-08T11:09:31Z</time>
      </trkpt>
      <trkpt lat="45.56088" lon="4.66726">
        <ele>267</ele>
        <time>2020-09-08T11:09:43Z</time>
      </trkpt>
      <trkpt lat="45.56097" lon="4.66731">
        <ele>267</ele>
        <time>2020-09-08T11:09:56Z</time>
      </trkpt>
      <trkpt lat="45.56152" lon="4.66709">
        <ele>274</ele>
        <time>2020-09-08T11:11:12Z</time>
      </trkpt>
      <trkpt lat="45.56166" lon="4.667">
        <ele>278</ele>
        <time>2020-09-08T11:11:32Z</time>
      </trkpt>
      <trkpt lat="45.56175" lon="4.66691">
        <ele>278</ele>
        <time>2020-09-08T11:11:47Z</time>
      </trkpt>
      <trkpt lat="45.56183" lon="4.66681">
        <ele>279</ele>
        <time>2020-09-08T11:12:01Z</time>
      </trkpt>
      <trkpt lat="45.56211" lon="4.66661">
        <ele>286</ele>
        <time>2020-09-08T11:12:43Z</time>
      </trkpt>
      <trkpt lat="45.562" lon="4.66655">
        <ele>283</ele>
        <time>2020-09-08T11:12:59Z</time>
      </trkpt>
      <trkpt lat="45.56197" lon="4.66645">
        <ele>287</ele>
        <time>2020-09-08T11:13:09Z</time>
      </trkpt>
      <trkpt lat="45.56194" lon="4.66645">
        <ele>287</ele>
        <time>2020-09-08T11:13:13Z</time>
      </trkpt>
      <trkpt lat="45.56225" lon="4.66598">
        <ele>298</ele>
        <time>2020-09-08T11:14:13Z</time>
      </trkpt>
      <trkpt lat="45.56225" lon="4.66598">
        <ele>298</ele>
        <time>2020-09-08T11:14:13Z</time>
      </trkpt>
      <trkpt lat="45.56236" lon="4.66541">
        <ele>299</ele>
        <time>2020-09-08T11:15:08Z</time>
      </trkpt>
      <trkpt lat="45.56235" lon="4.6654">
        <ele>299</ele>
        <time>2020-09-08T11:15:10Z</time>
      </trkpt>
      <trkpt lat="45.56237" lon="4.66519">
        <ele>308</ele>
        <time>2020-09-08T11:15:30Z</time>
      </trkpt>
      <trkpt lat="45.56245" lon="4.66494">
        <ele>308</ele>
        <time>2020-09-08T11:15:55Z</time>
      </trkpt>
      <trkpt lat="45.56256" lon="4.66485">
        <ele>308</ele>
        <time>2020-09-08T11:16:12Z</time>
      </trkpt>
      <trkpt lat="45.56266" lon="4.66471">
        <ele>313</ele>
        <time>2020-09-08T11:16:31Z</time>
      </trkpt>
      <trkpt lat="45.56292" lon="4.66426">
        <ele>316</ele>
        <time>2020-09-08T11:17:26Z</time>
      </trkpt>
      <trkpt lat="45.56315" lon="4.66369">
        <ele>315</ele>
        <time>2020-09-08T11:18:27Z</time>
      </trkpt>
      <trkpt lat="45.5637" lon="4.66193">
        <ele>322</ele>
        <time>2020-09-08T11:21:27Z</time>
      </trkpt>
      <trkpt lat="45.56385" lon="4.66152">
        <ele>325</ele>
        <time>2020-09-08T11:22:10Z</time>
      </trkpt>
      <trkpt lat="45.56392" lon="4.66135">
        <ele>325</ele>
        <time>2020-09-08T11:22:29Z</time>
      </trkpt>
      <trkpt lat="45.56424" lon="4.66079">
        <ele>324</ele>
        <time>2020-09-08T11:23:36Z</time>
      </trkpt>
      <trkpt lat="45.5643" lon="4.66065">
        <ele>324</ele>
        <time>2020-09-08T11:23:52Z</time>
      </trkpt>
      <trkpt lat="45.56437" lon="4.66043">
        <ele>329</ele>
        <time>2020-09-08T11:24:14Z</time>
      </trkpt>
      <trkpt lat="45.56452" lon="4.66012">
        <ele>328</ele>
        <time>2020-09-08T11:24:49Z</time>
      </trkpt>
      <trkpt lat="45.56476" lon="4.65976">
        <ele>326</ele>
        <time>2020-09-08T11:25:36Z</time>
      </trkpt>
      <trkpt lat="45.56479" lon="4.65978">
        <ele>326</ele>
        <time>2020-09-08T11:25:40Z</time>
      </trkpt>
      <trkpt lat="45.56481" lon="4.6598">
        <ele>326</ele>
        <time>2020-09-08T11:25:44Z</time>
      </trkpt>
      <trkpt lat="45.56544" lon="4.66051">
        <ele>331</ele>
        <time>2020-09-08T11:27:31Z</time>
      </trkpt>
      <trkpt lat="45.56586" lon="4.66095">
        <ele>332</ele>
        <time>2020-09-08T11:28:40Z</time>
      </trkpt>
      <trkpt lat="45.56605" lon="4.66112">
        <ele>333</ele>
        <time>2020-09-08T11:29:10Z</time>
      </trkpt>
      <trkpt lat="45.56607" lon="4.66113">
        <ele>333</ele>
        <time>2020-09-08T11:29:13Z</time>
      </trkpt>
      <trkpt lat="45.5663" lon="4.6606">
        <ele>333</ele>
        <time>2020-09-08T11:30:11Z</time>
      </trkpt>
      <trkpt lat="45.56669" lon="4.6599">
        <ele>335</ele>
        <time>2020-09-08T11:31:35Z</time>
      </trkpt>
      <trkpt lat="45.56673" lon="4.65996">
        <ele>335</ele>
        <time>2020-09-08T11:31:42Z</time>
      </trkpt>
      <trkpt lat="45.5684" lon="4.66339">
        <ele>333</ele>
        <time>2020-09-08T11:38:13Z</time>
      </trkpt>
      <trkpt lat="45.5684" lon="4.66339">
        <ele>333</ele>
        <time>2020-09-08T11:38:13Z</time>
      </trkpt>
      <trkpt lat="45.56897" lon="4.66326">
        <ele>335</ele>
        <time>2020-09-08T11:39:30Z</time>
      </trkpt>
      <trkpt lat="45.56933" lon="4.66324">
        <ele>335</ele>
        <time>2020-09-08T11:40:18Z</time>
      </trkpt>
      <trkpt lat="45.57003" lon="4.66233">
        <ele>335</ele>
        <time>2020-09-08T11:42:24Z</time>
      </trkpt>
      <trkpt lat="45.57069" lon="4.66141">
        <ele>335</ele>
        <time>2020-09-08T11:44:27Z</time>
      </trkpt>
      <trkpt lat="45.57131" lon="4.66063">
        <ele>337</ele>
        <time>2020-09-08T11:46:17Z</time>
      </trkpt>
      <trkpt lat="45.57134" lon="4.66049">
        <ele>337</ele>
        <time>2020-09-08T11:46:31Z</time>
      </trkpt>
      <trkpt lat="45.57114" lon="4.65994">
        <ele>337</ele>
        <time>2020-09-08T11:47:29Z</time>
      </trkpt>
      <trkpt lat="45.57106" lon="4.65961">
        <ele>339</ele>
        <time>2020-09-08T11:48:02Z</time>
      </trkpt>
      <trkpt lat="45.57105" lon="4.65938">
        <ele>340</ele>
        <time>2020-09-08T11:48:23Z</time>
      </trkpt>
      <trkpt lat="45.57111" lon="4.65818">
        <ele>343</ele>
        <time>2020-09-08T11:50:16Z</time>
      </trkpt>
      <trkpt lat="45.57113" lon="4.65808">
        <ele>343</ele>
        <time>2020-09-08T11:50:25Z</time>
      </trkpt>
      <trkpt lat="45.57111" lon="4.65818">
        <ele>343</ele>
        <time>2020-09-08T11:50:35Z</time>
      </trkpt>
      <trkpt lat="45.57263" lon="4.65872">
        <ele>341</ele>
        <time>2020-09-08T11:54:04Z</time>
      </trkpt>
      <trkpt lat="45.57347" lon="4.6594">
        <ele>342</ele>
        <time>2020-09-08T11:56:13Z</time>
      </trkpt>
      <trkpt lat="45.57362" lon="4.65942">
        <ele>343</ele>
        <time>2020-09-08T11:56:33Z</time>
      </trkpt>
      <trkpt lat="45.5739" lon="4.65941">
        <ele>343</ele>
        <time>2020-09-08T11:57:10Z</time>
      </trkpt>
      <trkpt lat="45.57407" lon="4.65931">
        <ele>343</ele>
        <time>2020-09-08T11:57:35Z</time>
      </trkpt>
      <trkpt lat="45.57547" lon="4.65889">
        <ele>348</ele>
        <time>2020-09-08T12:00:46Z</time>
      </trkpt>
      <trkpt lat="45.5754" lon="4.65992">
        <ele>347</ele>
        <time>2020-09-08T12:02:22Z</time>
      </trkpt>
      <trkpt lat="45.5754" lon="4.66055">
        <ele>344</ele>
        <time>2020-09-08T12:03:21Z</time>
      </trkpt>
      <trkpt lat="45.57608" lon="4.66126">
        <ele>344</ele>
        <time>2020-09-08T12:05:14Z</time>
      </trkpt>
      <trkpt lat="45.5769" lon="4.66194">
        <ele>344</ele>
        <time>2020-09-08T12:07:20Z</time>
      </trkpt>
      <trkpt lat="45.57702" lon="4.66184">
        <ele>344</ele>
        <time>2020-09-08T12:07:39Z</time>
      </trkpt>
      <trkpt lat="45.57713" lon="4.66169">
        <ele>345</ele>
        <time>2020-09-08T12:07:59Z</time>
      </trkpt>
      <trkpt lat="45.57726" lon="4.66159">
        <ele>345</ele>
        <time>2020-09-08T12:08:19Z</time>
      </trkpt>
      <trkpt lat="45.57731" lon="4.66178">
        <ele>345</ele>
        <time>2020-09-08T12:08:38Z</time>
      </trkpt>
      <trkpt lat="45.5777" lon="4.66164">
        <ele>344</ele>
        <time>2020-09-08T12:09:31Z</time>
      </trkpt>
      <trkpt lat="45.57777" lon="4.66187">
        <ele>343</ele>
        <time>2020-09-08T12:09:55Z</time>
      </trkpt>
      <trkpt lat="45.57821" lon="4.66191">
        <ele>342</ele>
        <time>2020-09-08T12:10:54Z</time>
      </trkpt>
      <trkpt lat="45.57823" lon="4.66204">
        <ele>342</ele>
        <time>2020-09-08T12:11:06Z</time>
      </trkpt>
    </trkseg>
  </trk>
</gpx>